Time;durP1;ratioP1;P1;durP2;ratioP2;P2;SDS_P1;SDS_P2;PMS_P1;PMS_P2;Temp;Humidity;BMP_temperature;BMP_pressure;BME280_temperature;BME280_humidity;BME280_pressure;Samples;Min_cycle;Max_cycle;Signal;HPM_P1;HPM_P2
2021/12/13 00:01:57;;;;;;;3.03;2.42;;;11.80;99.90;;;;;;5003902;28;20216;-78
2021/12/13 00:04:36;;;;;;;4.28;2.95;;;11.80;99.90;;;;;;5031726;28;20170;-78
2021/12/13 00:07:12;;;;;;;3.30;2.30;;;11.80;99.90;;;;;;5014143;28;20257;-78
2021/12/13 00:09:43;;;;;;;3.80;2.42;;;11.80;99.90;;;;;;5031321;28;20197;-78
2021/12/13 00:12:10;;;;;;;3.42;2.20;;;11.80;99.90;;;;;;5013566;28;20614;-78
2021/12/13 00:14:45;;;;;;;2.90;2.70;;;11.90;99.90;;;;;;4997473;28;20169;-77
2021/12/13 00:17:28;;;;;;;4.53;2.60;;;11.90;99.90;;;;;;5013922;28;20176;-77
2021/12/13 00:20:27;;;;;;;3.00;2.50;;;11.90;99.90;;;;;;5031599;28;20190;-77
2021/12/13 00:22:54;;;;;;;2.50;2.05;;;11.90;99.90;;;;;;5031234;28;20170;-78
2021/12/13 00:25:25;;;;;;;3.45;2.15;;;11.90;99.90;;;;;;5013778;28;20582;-78
2021/12/13 00:28:04;;;;;;;2.53;2.17;;;11.90;99.90;;;;;;5031801;28;20220;-78
2021/12/13 00:30:41;;;;;;;3.40;2.40;;;11.80;99.90;;;;;;5013428;28;20205;-77
2021/12/13 00:33:26;;;;;;;3.88;2.28;;;11.80;99.90;;;;;;5013358;28;20181;-78
2021/12/13 00:35:59;;;;;;;2.90;2.25;;;11.80;99.90;;;;;;5014228;28;20211;-78
2021/12/13 00:38:28;;;;;;;3.90;1.95;;;11.80;99.90;;;;;;5013788;28;20169;-78
2021/12/13 00:41:03;;;;;;;1.98;1.55;;;11.80;99.90;;;;;;5013305;28;20194;-78
2021/12/13 00:43:36;;;;;;;2.70;1.88;;;11.80;99.90;;;;;;5013472;28;20169;-77
2021/12/13 00:46:05;;;;;;;2.55;1.80;;;11.80;99.90;;;;;;5013900;28;20242;-78
2021/12/13 00:48:35;;;;;;;2.90;2.20;;;11.80;99.90;;;;;;5031431;28;20508;-79
2021/12/13 00:51:25;;;;;;;3.03;1.75;;;11.70;99.90;;;;;;5030790;28;20743;-78
2021/12/13 00:53:53;;;;;;;3.05;1.85;;;11.70;99.90;;;;;;5013377;28;20248;-78
2021/12/13 00:56:42;;;;;;;2.40;2.20;;;11.70;99.90;;;;;;5013795;28;20533;-78
2021/12/13 00:59:12;;;;;;;2.50;1.98;;;11.60;99.90;;;;;;5013187;28;20245;-78
2021/12/13 01:01:39;;;;;;;2.20;2.00;;;11.70;99.90;;;;;;5031485;28;20198;-78
2021/12/13 01:04:09;;;;;;;2.40;2.20;;;11.70;99.90;;;;;;4997867;28;20193;-78
2021/12/13 01:07:12;;;;;;;1.80;1.60;;;11.70;99.90;;;;;;5032043;28;20169;-78
2021/12/13 01:10:11;;;;;;;4.10;2.10;;;11.70;99.90;;;;;;4997126;28;20181;-78
2021/12/13 01:12:37;;;;;;;2.33;1.92;;;11.80;99.90;;;;;;5031245;28;20280;-77
2021/12/13 01:15:14;;;;;;;2.70;2.30;;;11.80;99.90;;;;;;5031636;28;20316;-78
2021/12/13 01:20:54;;;;;;;3.85;1.73;;;11.80;99.90;;;;;;5014302;28;20193;-77
2021/12/13 01:23:38;;;;;;;2.47;1.70;;;11.80;99.90;;;;;;5034559;28;20173;-77
2021/12/13 01:26:28;;;;;;;4.80;1.80;;;11.90;99.90;;;;;;5017389;28;20172;-77
2021/12/13 01:29:14;;;;;;;4.20;2.10;;;11.90;99.90;;;;;;5034053;28;20654;-77
2021/12/13 01:31:50;;;;;;;4.72;1.85;;;11.90;99.90;;;;;;5034628;28;20201;-77
2021/12/13 01:34:17;;;;;;;3.95;2.13;;;11.80;99.90;;;;;;5016892;28;20178;-77
2021/12/13 01:36:53;;;;;;;2.35;2.15;;;11.80;99.90;;;;;;5034521;28;20158;-78
2021/12/13 01:39:22;;;;;;;3.00;1.77;;;11.80;99.90;;;;;;5034169;28;20166;-78
2021/12/13 01:41:58;;;;;;;3.83;2.40;;;11.80;99.90;;;;;;5035507;28;20201;-78
2021/12/13 01:44:29;;;;;;;3.13;1.50;;;11.70;99.90;;;;;;5034358;28;20180;-78
2021/12/13 01:46:59;;;;;;;2.05;1.85;;;11.60;99.90;;;;;;5034270;28;20172;-78
2021/12/13 01:49:31;;;;;;;2.33;2.10;;;11.60;99.90;;;;;;5034007;28;20174;-78
2021/12/13 01:51:59;;;;;;;2.00;1.80;;;11.50;99.90;;;;;;5022404;28;20641;-76
2021/12/13 01:54:27;;;;;;;2.45;1.75;;;11.50;99.90;;;;;;5028922;28;20596;-77
2021/12/13 01:57:22;;;;;;;2.10;1.80;;;11.50;99.90;;;;;;5055429;28;20614;-77
2021/12/13 01:59:56;;;;;;;2.10;1.90;;;11.50;99.90;;;;;;5036905;28;20199;-77
2021/12/13 02:02:41;;;;;;;1.73;1.63;;;11.50;99.90;;;;;;5037248;28;20220;-77
2021/12/13 02:05:26;;;;;;;3.20;1.48;;;11.50;99.90;;;;;;5055334;28;20180;-77
2021/12/13 02:08:06;;;;;;;2.03;1.40;;;11.50;99.90;;;;;;5054892;28;20172;-77
2021/12/13 02:10:37;;;;;;;3.22;1.40;;;11.50;99.90;;;;;;5055491;28;20189;-77
2021/12/13 02:13:14;;;;;;;3.10;2.22;;;11.50;99.90;;;;;;5022573;28;20173;-77
2021/12/13 02:18:34;;;;;;;3.75;1.27;;;11.50;99.90;;;;;;5048660;28;20185;-77
2021/12/13 02:21:33;;;;;;;2.55;1.45;;;11.60;99.90;;;;;;5054320;28;20216;-77
2021/12/13 02:24:11;;;;;;;3.63;2.58;;;11.60;99.90;;;;;;5050225;28;20213;-77
2021/12/13 02:26:41;;;;;;;1.95;1.58;;;11.60;99.90;;;;;;5048712;28;20169;-78
2021/12/13 02:29:23;;;;;;;1.73;1.55;;;11.60;99.90;;;;;;5019689;28;20189;-78
2021/12/13 02:31:50;;;;;;;2.75;1.52;;;11.60;99.90;;;;;;5010452;28;20220;-77
2021/12/13 02:34:17;;;;;;;2.35;1.50;;;11.60;99.90;;;;;;5018093;28;20188;-77
2021/12/13 02:36:51;;;;;;;1.50;1.38;;;11.60;99.90;;;;;;5034357;28;20634;-77
2021/12/13 02:39:28;;;;;;;2.55;1.25;;;11.60;99.90;;;;;;5002978;28;20177;-77
2021/12/13 02:41:55;;;;;;;1.50;1.20;;;11.60;99.90;;;;;;5037377;28;20193;-77
2021/12/13 02:44:30;;;;;;;2.67;1.23;;;11.60;99.90;;;;;;5053218;28;20185;-78
2021/12/13 02:47:00;;;;;;;2.42;1.15;;;11.60;99.90;;;;;;5045233;28;20184;-77
2021/12/13 02:49:26;;;;;;;1.70;1.17;;;11.70;99.90;;;;;;5053432;28;20193;-77
2021/12/13 02:51:58;;;;;;;1.88;1.33;;;11.70;99.90;;;;;;5036307;28;20206;-77
2021/12/13 02:54:31;;;;;;;1.60;1.20;;;11.70;99.90;;;;;;5009811;28;20179;-77
2021/12/13 02:56:59;;;;;;;1.92;1.15;;;11.70;99.90;;;;;;5028088;28;20201;-77
2021/12/13 02:59:29;;;;;;;1.98;1.15;;;11.70;99.90;;;;;;5028467;28;20170;-77
2021/12/13 03:02:20;;;;;;;1.50;1.20;;;11.70;99.90;;;;;;5029191;28;20238;-77
2021/12/13 03:04:49;;;;;;;1.60;1.20;;;11.70;99.90;;;;;;5016064;28;20210;-77
2021/12/13 03:07:24;;;;;;;3.10;1.00;;;11.70;99.90;;;;;;5015387;28;20174;-79
2021/12/13 03:09:53;;;;;;;1.95;1.20;;;11.70;99.90;;;;;;5012604;28;20170;-79
2021/12/13 03:12:22;;;;;;;1.92;0.90;;;11.80;99.90;;;;;;5013332;28;20210;-79
2021/12/13 03:14:51;;;;;;;1.50;1.00;;;11.80;99.90;;;;;;4995092;28;20162;-79
2021/12/13 03:17:41;;;;;;;2.10;1.20;;;11.80;99.90;;;;;;5011886;28;20221;-78
2021/12/13 03:20:22;;;;;;;2.55;0.80;;;11.80;99.90;;;;;;5012421;28;20166;-77
2021/12/13 03:23:09;;;;;;;1.52;0.90;;;11.80;99.90;;;;;;5012814;28;20201;-77
2021/12/13 03:25:53;;;;;;;2.05;0.70;;;11.80;99.90;;;;;;5012812;28;20257;-77
2021/12/13 03:28:34;;;;;;;2.80;0.88;;;11.80;99.90;;;;;;5012664;28;20220;-78
2021/12/13 03:31:05;;;;;;;1.10;0.70;;;11.80;99.90;;;;;;5012325;28;20601;-78
2021/12/13 03:33:36;;;;;;;1.30;0.90;;;11.80;99.90;;;;;;5011792;28;20667;-78
2021/12/13 03:36:08;;;;;;;1.30;0.80;;;11.80;99.90;;;;;;4995261;28;20166;-78
2021/12/13 03:38:38;;;;;;;1.80;0.80;;;11.80;99.90;;;;;;5012363;28;20232;-78
2021/12/13 03:41:09;;;;;;;1.55;0.75;;;11.80;99.90;;;;;;4994551;28;20201;-78
2021/12/13 03:43:42;;;;;;;1.60;1.00;;;11.80;99.90;;;;;;5011246;28;20635;-78
2021/12/13 03:46:11;;;;;;;2.72;0.90;;;11.80;99.90;;;;;;4994903;28;20557;-79
2021/12/13 03:48:42;;;;;;;3.47;0.90;;;11.80;99.90;;;;;;5011980;28;20250;-78
2021/12/13 03:51:12;;;;;;;2.47;0.90;;;11.80;99.90;;;;;;5012328;28;20535;-78
2021/12/13 03:53:39;;;;;;;4.03;1.35;;;11.80;99.90;;;;;;4994571;28;20174;-78
2021/12/13 03:56:17;;;;;;;2.60;1.10;;;11.80;99.90;;;;;;4994604;28;20798;-78
2021/12/13 03:58:50;;;;;;;2.47;0.98;;;11.80;99.90;;;;;;5011960;28;20174;-78
2021/12/13 04:01:41;;;;;;;3.20;1.40;;;11.80;99.90;;;;;;5012360;28;20317;-78
2021/12/13 04:04:14;;;;;;;1.60;1.13;;;11.80;99.90;;;;;;5011646;28;20190;-78
2021/12/13 04:06:49;;;;;;;3.42;1.20;;;11.80;99.90;;;;;;4994750;28;20209;-78
2021/12/13 04:09:16;;;;;;;1.77;0.95;;;11.80;99.90;;;;;;5012475;28;20626;-78
2021/12/13 04:11:45;;;;;;;2.13;0.90;;;11.90;99.90;;;;;;5011751;28;20218;-78
2021/12/13 04:14:18;;;;;;;3.10;1.00;;;11.90;99.90;;;;;;5012225;28;20174;-78
2021/12/13 04:17:05;;;;;;;1.80;0.90;;;11.90;99.90;;;;;;5022354;28;20173;-78
2021/12/13 04:19:55;;;;;;;2.33;0.80;;;11.90;99.90;;;;;;5000993;28;20178;-78
2021/12/13 04:22:29;;;;;;;1.80;0.88;;;11.90;99.90;;;;;;5017100;28;20309;-78
2021/12/13 04:25:03;;;;;;;2.60;1.05;;;11.90;99.90;;;;;;5015332;28;20178;-78
2021/12/13 04:27:57;;;;;;;1.50;0.80;;;11.90;99.90;;;;;;4994853;28;20174;-79
2021/12/13 04:30:36;;;;;;;1.50;1.10;;;11.90;99.90;;;;;;5005789;28;20298;-78
2021/12/13 04:33:12;;;;;;;2.33;1.05;;;11.90;99.90;;;;;;5011645;28;20182;-78
2021/12/13 04:35:40;;;;;;;1.77;0.90;;;11.90;99.90;;;;;;4978000;28;20173;-78
2021/12/13 04:38:07;;;;;;;2.80;0.80;;;11.90;99.90;;;;;;5011855;28;20312;-78
2021/12/13 04:40:37;;;;;;;1.80;0.85;;;11.90;99.90;;;;;;4993548;28;20976;-78
2021/12/13 04:43:15;;;;;;;1.40;0.70;;;11.90;99.90;;;;;;4994254;28;20538;-78
2021/12/13 04:45:47;;;;;;;1.20;0.80;;;11.90;99.90;;;;;;5012143;28;20641;-78
2021/12/13 04:48:19;;;;;;;1.10;0.70;;;11.90;99.90;;;;;;5013133;28;20163;-78
2021/12/13 04:51:13;;;;;;;1.33;0.80;;;11.90;99.90;;;;;;5010986;28;20198;-78
2021/12/13 04:53:44;;;;;;;1.30;0.90;;;11.90;99.90;;;;;;4991508;28;20201;-79
2021/12/13 04:56:15;;;;;;;1.30;0.70;;;11.90;99.90;;;;;;5015717;28;20166;-78
2021/12/13 04:58:43;;;;;;;1.10;0.60;;;12.00;99.90;;;;;;5015546;28;20558;-77
2021/12/13 05:01:14;;;;;;;1.80;0.70;;;11.90;99.90;;;;;;4981683;28;20692;-77
2021/12/13 05:03:46;;;;;;;1.20;0.70;;;11.90;99.90;;;;;;5015397;28;20716;-78
2021/12/13 05:06:19;;;;;;;1.50;0.90;;;11.90;99.90;;;;;;4997709;28;20672;-78
2021/12/13 05:08:48;;;;;;;1.65;0.80;;;11.90;99.90;;;;;;4997595;28;20522;-78
2021/12/13 05:11:14;;;;;;;1.30;0.70;;;11.90;99.90;;;;;;5015158;28;20214;-78
2021/12/13 05:13:49;;;;;;;2.03;0.80;;;11.90;99.90;;;;;;5015053;28;20173;-78
2021/12/13 05:16:18;;;;;;;2.83;1.10;;;11.90;99.90;;;;;;4981272;28;20165;-78
2021/12/13 05:18:50;;;;;;;5.68;0.93;;;11.90;99.90;;;;;;5014725;28;20178;-78
2021/12/13 05:21:25;;;;;;;3.28;0.95;;;11.90;99.90;;;;;;5001552;28;20220;-78
2021/12/13 05:23:59;;;;;;;1.40;0.80;;;11.90;99.90;;;;;;5029689;28;20181;-78
2021/12/13 05:26:46;;;;;;;1.30;0.70;;;11.90;99.90;;;;;;5028613;28;20180;-78
2021/12/13 05:29:30;;;;;;;1.10;0.70;;;11.90;99.90;;;;;;5027577;28;20208;-78
2021/12/13 05:32:10;;;;;;;1.30;0.80;;;11.90;99.90;;;;;;5026000;28;20596;-78
2021/12/13 05:34:50;;;;;;;1.73;0.68;;;11.90;99.90;;;;;;5024148;28;20171;-78
2021/12/13 05:37:17;;;;;;;1.73;0.75;;;11.90;99.90;;;;;;4994912;28;20647;-78
2021/12/13 05:40:01;;;;;;;2.05;0.70;;;11.90;99.90;;;;;;4994661;28;20523;-78
2021/12/13 05:42:41;;;;;;;1.65;0.93;;;11.90;99.90;;;;;;4994978;28;20260;-78
2021/12/13 05:45:10;;;;;;;1.90;0.85;;;11.90;99.90;;;;;;4994902;28;20626;-78
2021/12/13 05:47:36;;;;;;;1.70;0.90;;;11.90;99.90;;;;;;4977401;28;20297;-78
2021/12/13 05:50:06;;;;;;;2.63;1.40;;;11.90;99.90;;;;;;4994649;28;20171;-78
2021/12/13 05:52:37;;;;;;;2.05;1.30;;;11.90;99.90;;;;;;4994141;28;20203;-78
2021/12/13 05:55:11;;;;;;;2.25;1.10;;;11.90;99.90;;;;;;4995217;28;20170;-77
2021/12/13 05:57:44;;;;;;;1.25;0.82;;;11.90;99.90;;;;;;4977418;28;20595;-78
2021/12/13 06:00:25;;;;;;;1.80;1.10;;;11.90;99.90;;;;;;4976962;28;20171;-77
2021/12/13 06:02:57;;;;;;;2.20;1.38;;;11.90;99.90;;;;;;4994121;28;20581;-78
2021/12/13 06:05:36;;;;;;;1.97;1.10;;;11.90;99.90;;;;;;4976705;28;20178;-78
2021/12/13 06:08:08;;;;;;;3.60;1.00;;;11.90;99.90;;;;;;4994571;28;20577;-78
2021/12/13 06:10:55;;;;;;;1.60;0.97;;;11.90;99.90;;;;;;4993951;28;20605;-78
2021/12/13 06:13:42;;;;;;;2.45;1.27;;;11.90;99.90;;;;;;4993869;28;20919;-77
2021/12/13 06:16:17;;;;;;;2.97;1.30;;;11.90;99.90;;;;;;4977103;28;20929;-77
2021/12/13 06:19:02;;;;;;;1.70;1.40;;;11.90;99.90;;;;;;4976135;28;20175;-77
2021/12/13 06:21:40;;;;;;;1.85;1.50;;;11.90;99.90;;;;;;4994173;28;20197;-77
2021/12/13 06:24:07;;;;;;;1.52;1.00;;;11.90;99.90;;;;;;4993877;28;20178;-77
2021/12/13 06:26:33;;;;;;;1.40;1.08;;;12.00;99.90;;;;;;4976700;28;20257;-77
2021/12/13 06:29:03;;;;;;;2.40;1.45;;;11.90;99.90;;;;;;4993197;28;20692;-77
2021/12/13 06:31:41;;;;;;;2.00;1.35;;;11.90;99.90;;;;;;4976448;28;20297;-77
2021/12/13 06:34:14;;;;;;;2.93;1.40;;;11.90;99.90;;;;;;4993576;28;20180;-78
2021/12/13 06:36:44;;;;;;;2.38;1.60;;;11.90;99.90;;;;;;4976424;28;21045;-77
2021/12/13 06:39:13;;;;;;;2.47;1.85;;;12.00;99.90;;;;;;4976199;28;20533;-77
2021/12/13 06:41:47;;;;;;;3.55;1.38;;;12.00;99.90;;;;;;4993823;28;20671;-77
2021/12/13 06:44:29;;;;;;;3.08;1.45;;;12.00;99.90;;;;;;4975497;28;20174;-77
2021/12/13 06:46:57;;;;;;;2.10;1.47;;;12.00;99.90;;;;;;4994083;28;20206;-77
2021/12/13 06:49:57;;;;;;;2.10;1.15;;;12.00;99.90;;;;;;4975910;28;20573;-77
2021/12/13 06:52:34;;;;;;;2.15;1.20;;;12.00;99.90;;;;;;4993585;28;20207;-78
2021/12/13 06:55:15;;;;;;;1.73;1.20;;;12.00;99.90;;;;;;4993979;28;20166;-78
2021/12/13 06:57:49;;;;;;;2.35;1.38;;;12.00;99.90;;;;;;4993905;28;20170;-77
2021/12/13 07:00:29;;;;;;;5.13;1.35;;;12.00;99.90;;;;;;4975481;28;20300;-77
2021/12/13 07:03:04;;;;;;;2.22;1.30;;;12.00;99.90;;;;;;4976227;28;20579;-77
2021/12/13 07:05:34;;;;;;;1.63;1.13;;;12.00;99.90;;;;;;4993536;28;20540;-77
2021/12/13 07:08:06;;;;;;;3.00;1.77;;;12.00;99.90;;;;;;4993867;28;20318;-77
2021/12/13 07:10:35;;;;;;;3.50;1.50;;;12.10;99.90;;;;;;4992576;28;20199;-77
2021/12/13 07:13:05;;;;;;;2.08;1.40;;;12.10;99.90;;;;;;4975566;28;20640;-77
2021/12/13 07:15:48;;;;;;;1.63;1.23;;;12.10;99.90;;;;;;4975925;28;20216;-78
2021/12/13 07:18:29;;;;;;;2.70;1.30;;;12.10;99.90;;;;;;4958764;28;20981;-78
2021/12/13 07:21:02;;;;;;;3.08;1.23;;;12.00;99.90;;;;;;4974947;28;20709;-78
2021/12/13 07:23:48;;;;;;;4.10;1.30;;;12.00;99.90;;;;;;4992976;28;20171;-77
2021/12/13 07:26:14;;;;;;;1.38;1.00;;;12.00;99.90;;;;;;4974956;28;20294;-78
2021/12/13 07:28:40;;;;;;;1.40;0.90;;;12.00;99.90;;;;;;4959412;28;20266;-78
2021/12/13 07:31:08;;;;;;;3.15;1.10;;;12.00;99.90;;;;;;4992300;28;20680;-77
2021/12/13 07:33:43;;;;;;;1.50;0.85;;;12.00;99.90;;;;;;4992427;28;20167;-76
2021/12/13 07:36:20;;;;;;;1.90;0.83;;;12.00;99.90;;;;;;4992503;28;20257;-76
2021/12/13 07:38:53;;;;;;;2.07;1.47;;;12.10;99.90;;;;;;4974869;28;21010;-77
2021/12/13 07:41:20;;;;;;;1.97;0.90;;;12.10;99.90;;;;;;4992443;28;20605;-76
2021/12/13 07:43:46;;;;;;;1.45;1.00;;;12.10;99.90;;;;;;4975200;28;20609;-77
2021/12/13 07:46:27;;;;;;;2.00;0.90;;;12.10;99.90;;;;;;4992512;28;20167;-76
2021/12/13 07:49:00;;;;;;;1.93;1.07;;;12.10;99.90;;;;;;4992165;28;20167;-77
2021/12/13 07:51:34;;;;;;;3.60;0.90;;;12.10;99.90;;;;;;4992491;28;20630;-76
2021/12/13 07:54:00;;;;;;;2.85;1.10;;;12.10;99.90;;;;;;5053606;23;20714;-77
2021/12/13 07:56:41;;;;;;;1.30;0.90;;;12.20;99.90;;;;;;5033635;28;20231;-77
2021/12/13 07:59:21;;;;;;;1.73;0.90;;;12.20;99.90;;;;;;5023478;28;20177;-77
2021/12/13 08:02:08;;;;;;;3.38;0.95;;;12.20;99.90;;;;;;5047186;28;20591;-77
2021/12/13 08:04:47;;;;;;;1.70;1.00;;;12.20;99.90;;;;;;5051709;28;20181;-77
2021/12/13 08:07:22;;;;;;;2.42;1.52;;;12.20;99.90;;;;;;5051746;28;20616;-77
2021/12/13 08:09:51;;;;;;;1.60;0.90;;;12.10;99.90;;;;;;5033351;28;20171;-77
2021/12/13 08:12:22;;;;;;;2.00;0.83;;;12.10;99.90;;;;;;5051376;28;20303;-77
2021/12/13 08:14:51;;;;;;;3.08;1.30;;;12.10;99.90;;;;;;5017202;28;20576;-77
2021/12/13 08:17:29;;;;;;;1.83;0.82;;;12.10;99.90;;;;;;5038838;28;20245;-77
2021/12/13 08:20:07;;;;;;;1.20;0.90;;;12.20;99.90;;;;;;5050915;28;20670;-77
2021/12/13 08:22:34;;;;;;;1.48;0.90;;;12.20;99.90;;;;;;5049852;28;20655;-76
2021/12/13 08:25:07;;;;;;;1.50;0.90;;;12.20;99.90;;;;;;5051490;28;20165;-76
2021/12/13 08:27:51;;;;;;;1.70;0.80;;;12.20;99.90;;;;;;5051421;28;20181;-76
2021/12/13 08:30:27;;;;;;;1.55;1.00;;;12.20;99.90;;;;;;5049610;28;20173;-76
2021/12/13 08:32:58;;;;;;;1.40;0.80;;;12.30;99.90;;;;;;5050861;28;20204;-75
2021/12/13 08:35:25;;;;;;;2.23;0.90;;;12.30;99.90;;;;;;5050425;28;20226;-76
2021/12/13 08:37:59;;;;;;;1.52;1.20;;;12.30;99.90;;;;;;5051194;28;20612;-76
2021/12/13 08:40:29;;;;;;;5.30;1.00;;;12.30;99.90;;;;;;5033181;28;20173;-75
2021/12/13 08:42:58;;;;;;;1.92;1.00;;;12.30;99.90;;;;;;5033179;28;20245;-75
2021/12/13 08:45:31;;;;;;;2.00;1.10;;;12.40;99.90;;;;;;5051988;28;20173;-75
2021/12/13 08:48:09;;;;;;;1.97;0.93;;;12.40;99.90;;;;;;5050998;28;20606;-75
2021/12/13 08:50:43;;;;;;;2.43;1.00;;;12.40;99.90;;;;;;5050839;28;20576;-75
2021/12/13 08:53:14;;;;;;;1.80;0.90;;;12.50;99.90;;;;;;5050430;28;20987;-75
2021/12/13 08:55:54;;;;;;;3.58;1.10;;;12.50;99.90;;;;;;5036687;28;20570;-75
2021/12/13 08:58:20;;;;;;;3.30;1.07;;;12.50;99.90;;;;;;5049818;28;20534;-75
2021/12/13 09:00:59;;;;;;;1.92;1.52;;;12.60;99.90;;;;;;5051007;28;20579;-75
2021/12/13 09:03:49;;;;;;;2.07;0.80;;;12.60;99.90;;;;;;5051139;28;20211;-76
2021/12/13 09:06:17;;;;;;;1.67;0.90;;;12.60;99.90;;;;;;5049715;28;20583;-76
2021/12/13 09:09:09;;;;;;;1.30;0.90;;;12.70;99.90;;;;;;5049831;28;20184;-75
2021/12/13 09:11:48;;;;;;;1.90;0.97;;;12.70;99.90;;;;;;5050129;28;20627;-75
2021/12/13 09:14:26;;;;;;;1.60;0.88;;;12.80;99.90;;;;;;5049449;28;21146;-75
2021/12/13 09:17:21;;;;;;;2.30;1.00;;;12.80;99.90;;;;;;5051165;28;20256;-75
2021/12/13 09:19:47;;;;;;;1.40;0.90;;;12.80;99.90;;;;;;5049812;28;20970;-76
2021/12/13 09:22:25;;;;;;;1.47;0.90;;;12.90;99.90;;;;;;5050430;28;20555;-75
2021/12/13 09:24:53;;;;;;;5.30;1.00;;;13.00;99.90;;;;;;5032792;28;20197;-75
2021/12/13 09:27:28;;;;;;;1.30;0.80;;;13.00;99.90;;;;;;5051040;28;20563;-75
2021/12/13 09:30:01;;;;;;;1.60;1.00;;;13.10;99.90;;;;;;5050911;28;20993;-75
2021/12/13 09:32:39;;;;;;;2.00;1.00;;;13.10;99.90;;;;;;5051205;28;20623;-75
2021/12/13 09:35:37;;;;;;;1.83;1.17;;;13.20;99.90;;;;;;5033283;28;20621;-74
2021/12/13 09:38:47;;;;;;;2.90;1.40;;;13.20;99.90;;;;;;5035087;28;20639;-74
2021/12/13 09:41:19;;;;;;;3.40;1.17;;;13.20;99.90;;;;;;4964467;28;20953;-76
2021/12/13 09:43:47;;;;;;;3.90;1.00;;;13.30;99.90;;;;;;5054454;28;20603;-75
2021/12/13 09:46:20;;;;;;;2.90;1.10;;;13.30;99.90;;;;;;5053135;28;20818;-75
2021/12/13 09:48:50;;;;;;;1.90;1.00;;;13.20;99.90;;;;;;5054223;28;20576;-75
2021/12/13 09:51:36;;;;;;;1.60;0.90;;;13.30;99.90;;;;;;5052905;28;20607;-77
2021/12/13 09:54:05;;;;;;;1.67;0.80;;;13.20;99.90;;;;;;5052912;28;20618;-76
2021/12/13 09:56:39;;;;;;;2.43;1.00;;;13.30;99.90;;;;;;5053071;28;20621;-75
2021/12/13 09:59:25;;;;;;;1.30;0.80;;;13.30;99.90;;;;;;5054188;28;20568;-75
2021/12/13 10:01:53;;;;;;;1.40;1.00;;;13.30;99.90;;;;;;5054257;28;20564;-76
2021/12/13 10:04:34;;;;;;;3.00;1.10;;;13.40;99.90;;;;;;5053894;28;20595;-75
2021/12/13 10:07:05;;;;;;;1.57;1.00;;;13.50;99.90;;;;;;5052755;28;20678;-75
2021/12/13 10:10:17;;;;;;;1.50;1.07;;;13.60;99.90;;;;;;5053030;28;20560;-75
2021/12/13 10:12:52;;;;;;;1.33;0.90;;;13.70;99.90;;;;;;5045448;28;20647;-75
2021/12/13 10:15:32;;;;;;;1.20;0.90;;;13.90;99.90;;;;;;5053971;28;21068;-75
2021/12/13 10:18:05;;;;;;;1.20;0.80;;;14.00;99.90;;;;;;5019703;28;20575;-75
2021/12/13 10:20:43;;;;;;;1.60;0.80;;;14.10;99.90;;;;;;5052303;28;21039;-75
2021/12/13 10:23:13;;;;;;;1.70;0.90;;;14.10;99.90;;;;;;5053932;28;20634;-75
2021/12/13 10:25:43;;;;;;;1.80;1.20;;;14.20;99.90;;;;;;5053848;28;20590;-75
2021/12/13 10:28:14;;;;;;;4.90;0.90;;;14.30;99.90;;;;;;5053881;28;20595;-75
2021/12/13 10:30:47;;;;;;;1.30;0.90;;;14.40;99.90;;;;;;5053748;28;21177;-75
2021/12/13 10:33:14;;;;;;;1.50;1.00;;;14.40;99.90;;;;;;5053257;28;20595;-76
2021/12/13 10:35:42;;;;;;;1.80;1.20;;;14.50;99.90;;;;;;5052118;28;20637;-77
2021/12/13 10:38:22;;;;;;;1.30;0.80;;;14.50;99.90;;;;;;5053187;28;20650;-77
2021/12/13 10:41:04;;;;;;;2.43;0.90;;;14.50;99.90;;;;;;5051710;28;20575;-77
2021/12/13 10:43:34;;;;;;;1.40;0.90;;;14.50;99.90;;;;;;5052926;28;20595;-77
2021/12/13 10:46:11;;;;;;;1.20;0.90;;;14.40;99.90;;;;;;5052332;28;20666;-77
2021/12/13 10:48:45;;;;;;;1.40;0.90;;;14.40;99.90;;;;;;5055438;28;20586;-77
2021/12/13 10:51:14;;;;;;;1.63;1.10;;;14.40;99.90;;;;;;5053218;28;20713;-77
2021/12/13 10:53:42;;;;;;;1.67;1.10;;;14.40;99.90;;;;;;5051121;28;21232;-77
2021/12/13 10:56:20;;;;;;;1.83;1.20;;;14.40;99.90;;;;;;5035515;28;20587;-77
2021/12/13 10:58:51;;;;;;;2.23;1.17;;;14.40;99.90;;;;;;5051387;28;20594;-77
2021/12/13 11:01:18;;;;;;;2.33;1.20;;;14.40;99.90;;;;;;5052137;28;20913;-77
2021/12/13 11:03:45;;;;;;;1.77;1.30;;;14.40;99.90;;;;;;5034493;28;20710;-77
2021/12/13 11:06:14;;;;;;;3.30;1.50;;;14.50;99.90;;;;;;5052964;28;21257;-77
2021/12/13 11:08:44;;;;;;;3.83;1.63;;;14.50;99.90;;;;;;5052657;28;20622;-77
2021/12/13 11:11:21;;;;;;;1.77;1.13;;;14.50;99.90;;;;;;5051477;28;20634;-77
2021/12/13 11:13:50;;;;;;;3.30;1.63;;;14.50;99.90;;;;;;5051040;28;20587;-77
2021/12/13 11:16:20;;;;;;;1.90;1.33;;;14.50;99.90;;;;;;5052536;28;20909;-77
2021/12/13 11:18:47;;;;;;;3.27;1.50;;;14.60;99.90;;;;;;5050338;28;20574;-77
2021/12/13 11:21:22;;;;;;;2.30;1.60;;;14.60;99.90;;;;;;5051344;28;20643;-77
2021/12/13 11:23:48;;;;;;;2.00;1.40;;;14.70;99.90;;;;;;5055327;28;20617;-77
2021/12/13 11:26:17;;;;;;;1.57;1.00;;;14.70;99.90;;;;;;5034827;28;20599;-77
2021/12/13 11:28:43;;;;;;;1.50;0.83;;;14.70;99.90;;;;;;5051643;28;20568;-77
2021/12/13 11:31:22;;;;;;;1.50;0.90;;;14.80;99.90;;;;;;5034395;28;20624;-77
2021/12/13 11:34:01;;;;;;;2.10;1.07;;;14.70;99.90;;;;;;5050449;28;20682;-77
2021/12/13 11:36:57;;;;;;;1.70;0.80;;;14.70;99.90;;;;;;5052266;28;20924;-77
2021/12/13 11:40:13;;;;;;;1.50;0.90;;;14.70;99.90;;;;;;5050753;28;20686;-77
2021/12/13 11:43:03;;;;;;;1.63;0.90;;;14.70;99.90;;;;;;4970794;28;20665;-77
2021/12/13 11:45:46;;;;;;;1.80;0.90;;;14.70;99.90;;;;;;5050917;28;20670;-77
2021/12/13 11:48:56;;;;;;;1.73;0.90;;;14.70;99.90;;;;;;5051345;28;20574;-77
2021/12/13 11:51:46;;;;;;;1.30;0.90;;;14.60;99.90;;;;;;5020726;28;20635;-77
2021/12/13 11:54:30;;;;;;;1.80;1.10;;;14.60;99.90;;;;;;5050219;28;20623;-77
2021/12/13 11:57:33;;;;;;;1.23;0.70;;;14.60;99.90;;;;;;5052035;28;20667;-77
2021/12/13 12:00:28;;;;;;;2.07;0.80;;;14.60;99.90;;;;;;5051239;28;20556;-77
2021/12/13 12:03:20;;;;;;;1.80;0.80;;;14.70;99.90;;;;;;5053982;28;20607;-77
2021/12/13 12:06:24;;;;;;;1.30;0.70;;;14.70;99.90;;;;;;5050648;28;20551;-77
2021/12/13 12:09:24;;;;;;;3.67;0.90;;;14.70;99.90;;;;;;5049864;28;20614;-77
2021/12/13 12:12:14;;;;;;;1.33;0.70;;;14.70;99.90;;;;;;5051737;28;21288;-77
2021/12/13 12:14:40;;;;;;;1.20;0.60;;;14.70;99.90;;;;;;5049866;28;20972;-77
2021/12/13 12:17:07;;;;;;;1.87;0.90;;;14.70;99.90;;;;;;5051836;28;20555;-77
2021/12/13 12:19:36;;;;;;;1.20;0.70;;;14.70;99.90;;;;;;5016651;28;20169;-77
2021/12/13 12:22:15;;;;;;;1.30;0.80;;;14.80;99.90;;;;;;5050024;28;20567;-77
2021/12/13 12:24:49;;;;;;;2.00;0.80;;;14.80;99.90;;;;;;5049857;28;20578;-77
2021/12/13 12:27:19;;;;;;;1.10;0.60;;;14.80;99.90;;;;;;5033609;28;20913;-77
2021/12/13 12:29:48;;;;;;;1.43;0.70;;;14.80;99.90;;;;;;5049606;28;20563;-78
2021/12/13 12:32:23;;;;;;;1.20;0.60;;;14.80;99.90;;;;;;5051430;28;20623;-77
2021/12/13 12:34:58;;;;;;;1.23;0.60;;;14.80;99.90;;;;;;5049786;28;20559;-77
2021/12/13 12:37:54;;;;;;;1.50;1.00;;;14.80;99.90;;;;;;5051512;28;20883;-77
2021/12/13 12:40:46;;;;;;;1.40;0.80;;;14.80;99.90;;;;;;5029726;28;20581;-77
2021/12/13 12:43:16;;;;;;;1.30;0.70;;;14.80;99.90;;;;;;5030706;28;20658;-76
2021/12/13 12:45:49;;;;;;;1.40;0.60;;;14.70;99.90;;;;;;5013392;28;20599;-77
2021/12/13 12:48:34;;;;;;;1.50;0.60;;;14.70;99.90;;;;;;5030347;28;20579;-78
2021/12/13 12:51:22;;;;;;;1.13;0.60;;;14.60;99.90;;;;;;5029409;28;20591;-78
2021/12/13 12:53:58;;;;;;;3.80;0.70;;;14.50;99.90;;;;;;5031015;28;20654;-78
2021/12/13 12:56:30;;;;;;;1.27;0.70;;;14.50;99.90;;;;;;5030683;28;20567;-77
2021/12/13 12:59:19;;;;;;;1.60;1.00;;;14.50;99.90;;;;;;5032251;28;20553;-77
2021/12/13 13:01:59;;;;;;;2.50;1.07;;;14.40;99.90;;;;;;5030053;28;20918;-77
2021/12/13 13:04:30;;;;;;;2.63;1.20;;;14.30;99.90;;;;;;5029626;28;20662;-77
2021/12/13 13:07:33;;;;;;;2.57;0.93;;;14.30;99.90;;;;;;5031095;28;20584;-76
2021/12/13 13:10:21;;;;;;;2.03;1.00;;;14.20;99.90;;;;;;4934417;29;21163;-76
2021/12/13 13:12:49;;;;;;;1.30;0.70;;;14.20;99.90;;;;;;5035279;28;20883;-76
2021/12/13 13:15:19;;;;;;;1.70;0.80;;;14.20;99.90;;;;;;4996942;28;20565;-76
2021/12/13 13:17:51;;;;;;;1.80;1.20;;;14.20;99.90;;;;;;5002829;28;20604;-77
2021/12/13 13:20:28;;;;;;;1.37;0.80;;;14.10;99.90;;;;;;5044673;28;20572;-76
2021/12/13 13:22:55;;;;;;;1.23;0.70;;;14.10;99.90;;;;;;5054292;28;20602;-76
2021/12/13 13:25:26;;;;;;;1.40;0.60;;;14.10;99.90;;;;;;5055250;28;20923;-77
2021/12/13 13:27:52;;;;;;;1.00;0.50;;;14.10;99.90;;;;;;5053449;28;20928;-76
2021/12/13 13:30:24;;;;;;;1.83;0.50;;;14.10;99.90;;;;;;5054036;28;20919;-76
2021/12/13 13:32:51;;;;;;;3.90;0.70;;;14.10;99.90;;;;;;5053694;28;20627;-76
2021/12/13 13:35:18;;;;;;;2.07;1.53;;;14.10;99.90;;;;;;5053217;28;20571;-76
2021/12/13 13:37:44;;;;;;;1.73;0.67;;;14.10;99.90;;;;;;5054607;28;20617;-76
2021/12/13 13:40:19;;;;;;;2.20;0.60;;;14.10;99.90;;;;;;5053954;28;21118;-76